Vejrstation Sortsø Strand
Vejrstation Sortsø Strands historiske vejrdata
 
Daily Summary for June 16, 2024 Units:  Metric    English   Both
Daily Weekly Monthly Yearly Custom
  Current: High: Low: Average:
Temperature: 13.3 °C 20.7 °C 10.6 °C 15.5 °C
Dew Point: 10.5 °C 15.1 °C 7.7 °C 11.7 °C
Humidity: 83% 84% 63% 78%
Wind Speed: 0km/h 32km/h 0km/h 12.5km/h
Wind Gust: 0km/h 20km/h - -
WindCalm - - South
Pressure: 1008.1 hPa 1008.1 hPa 1006.5 hPa -
Precipitation: 3.56 mm      
Historical Graphs
 
 
Tabular Data for June 16, 2024
Time Temperature Dew Point Pressure Wind Wind Speed Wind Gust Humidity Rainfall Rate (Hourly) solar
00:04 10.6 °C 7.8 °C 1006.9 hPa Calm     83% 0.00 mm 0.00 W/m2
00:09 10.6 °C 7.8 °C 1006.9 hPa Calm     83% 0.00 mm 0.00 W/m2
00:14 10.6 °C 7.8 °C 1006.9 hPa Calm     83% 0.00 mm 0.00 W/m2
00:19 10.6 °C 7.7 °C 1006.9 hPa Calm     83% 0.00 mm 0.00 W/m2
00:24 10.6 °C 7.8 °C 1006.8 hPa Calm     83% 0.00 mm 0.00 W/m2
00:29 10.6 °C 7.8 °C 1006.8 hPa Calm     83% 0.00 mm 0.00 W/m2
00:34 10.6 °C 7.8 °C 1006.8 hPa Calm     83% 0.00 mm 0.00 W/m2
00:39 10.6 °C 7.8 °C 1006.8 hPa Calm     83% 0.00 mm 0.00 W/m2
00:44 10.7 °C 7.9 °C 1006.9 hPa SW 6 km/h 3 km/h 83% 0.00 mm 0.00 W/m2
00:49 10.8 °C 8.1 °C 1006.9 hPa SW 6 km/h 4 km/h 83% 0.00 mm 0.00 W/m2
00:54 10.9 °C 8.2 °C 1006.9 hPa SW 6 km/h 3 km/h 83% 0.00 mm 0.00 W/m2
00:59 11.0 °C 8.2 °C 1006.9 hPa SW 6 km/h 4 km/h 83% 0.00 mm 0.00 W/m2
01:04 11.0 °C 8.2 °C 1006.9 hPa SW 6 km/h 4 km/h 83% 0.00 mm 0.00 W/m2
01:09 10.9 °C 8.2 °C 1006.9 hPa SW 6 km/h 4 km/h 83% 0.00 mm 0.00 W/m2
01:14 11.1 °C 8.3 °C 1006.9 hPa SW 10 km/h 5 km/h 83% 0.00 mm 0.00 W/m2
01:19 11.1 °C 8.3 °C 1006.9 hPa SW 6 km/h 2 km/h 83% 0.00 mm 0.00 W/m2
01:24 11.1 °C 8.3 °C 1007.0 hPa SW 11 km/h 6 km/h 83% 0.00 mm 0.00 W/m2
01:29 11.3 °C 8.7 °C 1007.0 hPa SW 11 km/h 6 km/h 84% 0.00 mm 0.00 W/m2
01:34 11.5 °C 8.9 °C 1006.9 hPa SW 10 km/h 6 km/h 84% 0.00 mm 0.00 W/m2
01:39 11.6 °C 8.9 °C 1006.9 hPa SW 8 km/h 5 km/h 84% 0.00 mm 0.00 W/m2
01:44 11.7 °C 9.1 °C 1007.0 hPa SW 10 km/h 6 km/h 84% 0.00 mm 0.00 W/m2
01:49 11.9 °C 9.3 °C 1007.0 hPa SW 11 km/h 5 km/h 84% 0.00 mm 0.00 W/m2
01:54 12.1 °C 9.5 °C 1007.0 hPa SW 6 km/h 1 km/h 84% 0.00 mm 0.00 W/m2
01:59 12.2 °C 9.6 °C 1007.0 hPa SW 10 km/h 6 km/h 84% 0.00 mm 0.00 W/m2
02:04 12.2 °C 9.6 °C 1006.9 hPa SW 6 km/h 2 km/h 84% 0.00 mm 0.00 W/m2
02:09 12.3 °C 9.7 °C 1006.9 hPa Calm     84% 0.00 mm 0.00 W/m2
02:14 12.4 °C 9.8 °C 1006.9 hPa Calm     84% 0.00 mm 0.00 W/m2
02:19 12.5 °C 9.9 °C 1006.9 hPa Calm     84% 0.00 mm 0.00 W/m2
02:24 12.6 °C 10.0 °C 1006.8 hPa Calm     84% 0.00 mm 0.00 W/m2
02:29 12.8 °C 10.2 °C 1006.8 hPa SW 4 km/h 1 km/h 84% 0.00 mm 0.00 W/m2
02:34 12.8 °C 10.2 °C 1006.8 hPa SW 6 km/h 2 km/h 84% 0.00 mm 0.00 W/m2
02:39 12.8 °C 10.2 °C 1006.9 hPa Calm     84% 0.00 mm 0.00 W/m2
02:44 12.8 °C 10.2 °C 1006.8 hPa Calm     84% 0.00 mm 0.00 W/m2
02:49 12.7 °C 10.1 °C 1006.8 hPa Calm     84% 0.00 mm 0.00 W/m2
02:54 12.8 °C 10.2 °C 1006.8 hPa Calm     84% 0.00 mm 0.00 W/m2
02:59 12.9 °C 10.2 °C 1006.8 hPa SW 4 km/h 2 km/h 84% 0.00 mm 0.00 W/m2
03:04 12.9 °C 10.3 °C 1006.9 hPa SW 6 km/h 3 km/h 84% 0.00 mm 0.00 W/m2
03:09 12.9 °C 10.3 °C 1006.9 hPa SW 8 km/h 5 km/h 84% 0.00 mm 0.00 W/m2
03:14 13.0 °C 10.3 °C 1006.9 hPa SW 7 km/h 4 km/h 84% 0.00 mm 0.00 W/m2
03:19 13.1 °C 10.2 °C 1006.9 hPa SW 6 km/h 1 km/h 83% 0.00 mm 0.00 W/m2
03:24 13.1 °C 10.3 °C 1006.9 hPa SW 8 km/h 5 km/h 83% 0.00 mm 0.00 W/m2
03:29 13.1 °C 10.3 °C 1006.9 hPa SW 6 km/h 4 km/h 83% 0.00 mm 0.00 W/m2
03:34 13.1 °C 10.2 °C 1006.9 hPa SW 2 km/h   83% 0.00 mm 0.00 W/m2
03:39 12.9 °C 10.1 °C 1006.9 hPa SW 6 km/h 5 km/h 83% 0.00 mm 0.00 W/m2
03:44 12.8 °C 10.0 °C 1006.9 hPa SW 6 km/h 5 km/h 83% 0.00 mm 0.00 W/m2
03:49 12.8 °C 10.0 °C 1006.9 hPa SW 6 km/h 4 km/h 83% 0.00 mm 0.00 W/m2
03:54 12.8 °C 9.8 °C 1006.9 hPa SW 6 km/h 1 km/h 82% 0.00 mm 0.00 W/m2
03:59 12.8 °C 9.8 °C 1006.9 hPa SW 10 km/h 4 km/h 82% 0.00 mm 0.00 W/m2
04:04 12.7 °C 9.7 °C 1006.9 hPa SW 10 km/h 3 km/h 82% 0.00 mm 0.00 W/m2
04:09 12.6 °C 9.6 °C 1006.9 hPa SW 8 km/h 1 km/h 82% 0.00 mm 0.00 W/m2
04:14 12.6 °C 9.6 °C 1006.9 hPa SW 6 km/h 4 km/h 82% 0.00 mm 0.00 W/m2
04:19 12.6 °C 9.6 °C 1006.9 hPa SW 11 km/h 7 km/h 82% 0.00 mm 0.00 W/m2
04:24 12.7 °C 9.7 °C 1006.8 hPa SW 11 km/h 7 km/h 82% 0.00 mm 0.00 W/m2
04:29 12.7 °C 9.7 °C 1006.9 hPa SSW 19 km/h 7 km/h 82% 0.00 mm 0.00 W/m2
04:34 12.8 °C 9.6 °C 1006.9 hPa SSW 9 km/h 4 km/h 81% 0.00 mm 0.00 W/m2
04:39 12.8 °C 9.6 °C 1006.9 hPa SSW 8 km/h 3 km/h 81% 0.00 mm 0.00 W/m2
04:44 12.8 °C 9.6 °C 1007.0 hPa SSW 10 km/h 4 km/h 81% 0.00 mm 0.00 W/m2
04:49 12.8 °C 9.6 °C 1007.0 hPa SSW 11 km/h 4 km/h 81% 0.00 mm 0.00 W/m2
04:54 12.8 °C 9.6 °C 1007.0 hPa SSW 8 km/h 3 km/h 81% 0.00 mm 0.00 W/m2
04:59 12.7 °C 9.7 °C 1007.0 hPa SSW 10 km/h 4 km/h 82% 0.00 mm 0.00 W/m2
05:04 12.7 °C 9.7 °C 1007.0 hPa SSW 8 km/h 5 km/h 82% 0.00 mm 0.00 W/m2
05:09 12.7 °C 9.7 °C 1007.0 hPa SSW 8 km/h 5 km/h 82% 0.00 mm 0.00 W/m2
05:14 12.6 °C 9.6 °C 1007.0 hPa SSW 10 km/h 5 km/h 82% 0.00 mm 0.00 W/m2
05:19 12.7 °C 9.7 °C 1006.9 hPa SSW 8 km/h 5 km/h 82% 0.00 mm 0.00 W/m2
05:24 12.7 °C 9.7 °C 1007.0 hPa SSW 15 km/h 7 km/h 82% 0.00 mm 0.00 W/m2
05:29 12.8 °C 9.7 °C 1007.0 hPa SSW 9 km/h 6 km/h 81% 0.00 mm 0.00 W/m2
05:34 12.9 °C 9.8 °C 1007.0 hPa SSW 8 km/h 5 km/h 81% 0.00 mm 0.00 W/m2
05:39 13.0 °C 9.8 °C 1007.0 hPa SSW 8 km/h 4 km/h 81% 0.00 mm 0.00 W/m2
05:44 13.1 °C 9.9 °C 1006.9 hPa SSW 10 km/h 5 km/h 81% 0.00 mm 0.00 W/m2
05:49 13.2 °C 10.0 °C 1006.9 hPa SSW 10 km/h 5 km/h 81% 0.00 mm 0.00 W/m2
05:54 13.2 °C 10.1 °C 1007.0 hPa SSW 9 km/h 5 km/h 81% 0.00 mm 0.00 W/m2
05:59 13.3 °C 10.1 °C 1007.0 hPa SSW 6 km/h 4 km/h 81% 0.00 mm 0.00 W/m2
06:04 13.4 °C 10.2 °C 1007.0 hPa SSW 8 km/h 4 km/h 81% 0.00 mm 0.00 W/m2
06:09 13.4 °C 10.2 °C 1007.0 hPa SSW 11 km/h 5 km/h 81% 0.00 mm 0.00 W/m2
06:14 13.5 °C 10.3 °C 1007.0 hPa SSW 10 km/h 6 km/h 81% 0.00 mm 0.00 W/m2
06:19 13.6 °C 10.4 °C 1007.0 hPa SSW 10 km/h 6 km/h 81% 0.00 mm 0.00 W/m2
06:24 13.7 °C 10.5 °C 1006.9 hPa SSW 6 km/h 4 km/h 81% 0.00 mm 0.00 W/m2
06:29 13.9 °C 10.7 °C 1006.9 hPa Calm     81% 0.00 mm 0.00 W/m2
06:34 14.0 °C 10.8 °C 1006.9 hPa Calm     81% 0.00 mm 0.00 W/m2
06:39 14.2 °C 10.9 °C 1007.0 hPa SSW 6 km/h 5 km/h 81% 0.00 mm 0.00 W/m2
06:44 14.3 °C 11.1 °C 1007.0 hPa SSW 8 km/h 6 km/h 81% 0.00 mm 0.00 W/m2
06:49 14.6 °C 11.3 °C 1007.0 hPa SSW 8 km/h 5 km/h 81% 0.00 mm 0.00 W/m2
06:54 14.9 °C 11.7 °C 1007.1 hPa SSW 10 km/h 5 km/h 81% 0.00 mm 0.00 W/m2
06:59 15.1 °C 11.8 °C 1007.1 hPa SSW 15 km/h 8 km/h 81% 0.00 mm 0.00 W/m2
07:04 15.1 °C 11.7 °C 1007.1 hPa South 24 km/h 10 km/h 80% 0.00 mm 0.00 W/m2
07:09 15.2 °C 11.8 °C 1007.1 hPa South 19 km/h 12 km/h 80% 0.00 mm 0.00 W/m2
07:14 15.3 °C 11.7 °C 1007.1 hPa SSW 19 km/h 11 km/h 79% 0.00 mm 0.00 W/m2
07:19 15.4 °C 11.8 °C 1007.1 hPa South 23 km/h 13 km/h 79% 0.00 mm 0.00 W/m2
07:24 15.5 °C 11.8 °C 1007.2 hPa South 19 km/h 12 km/h 79% 0.00 mm 0.00 W/m2
07:29 15.6 °C 12.0 °C 1007.2 hPa South 19 km/h 12 km/h 79% 0.00 mm 0.00 W/m2
07:34 15.7 °C 12.1 °C 1007.2 hPa South 19 km/h 10 km/h 79% 0.00 mm 0.00 W/m2
07:39 15.8 °C 12.0 °C 1007.2 hPa South 17 km/h 11 km/h 78% 0.00 mm 0.00 W/m2
07:44 15.9 °C 11.9 °C 1007.1 hPa South 21 km/h 12 km/h 77% 0.00 mm 0.00 W/m2
07:49 16.1 °C 12.1 °C 1007.1 hPa South 19 km/h 13 km/h 77% 0.00 mm 0.00 W/m2
07:54 16.3 °C 12.1 °C 1007.1 hPa South 19 km/h 13 km/h 77% 0.00 mm 0.00 W/m2
07:59 16.4 °C 12.1 °C 1007.2 hPa South 23 km/h 15 km/h 76% 0.00 mm 0.00 W/m2
08:04 16.6 °C 12.1 °C 1007.2 hPa South 23 km/h 13 km/h 75% 0.00 mm 0.00 W/m2
08:09 16.6 °C 12.1 °C 1007.2 hPa South 21 km/h 15 km/h 75% 0.00 mm 0.00 W/m2
08:14 16.5 °C 12.1 °C 1007.3 hPa SSW 23 km/h 16 km/h 75% 0.00 mm 0.00 W/m2
08:19 16.7 °C 12.2 °C 1007.3 hPa South 19 km/h 12 km/h 75% 0.00 mm 0.00 W/m2
08:24 16.8 °C 12.4 °C 1007.3 hPa South 24 km/h 15 km/h 75% 0.00 mm 0.00 W/m2
08:29 16.9 °C 12.4 °C 1007.2 hPa South 21 km/h 12 km/h 75% 0.00 mm 0.00 W/m2
08:34 17.1 °C 12.8 °C 1007.2 hPa South 19 km/h 10 km/h 76% 0.00 mm 0.00 W/m2
08:39 17.1 °C 12.6 °C 1007.2 hPa South 19 km/h 12 km/h 75% 0.00 mm 0.00 W/m2
08:44 16.9 °C 12.2 °C 1007.2 hPa SSW 23 km/h 12 km/h 74% 0.00 mm 0.00 W/m2
08:49 16.7 °C 12.2 °C 1007.3 hPa South 21 km/h 14 km/h 75% 0.00 mm 0.00 W/m2
08:54 16.5 °C 12.1 °C 1007.2 hPa South 20 km/h 13 km/h 75% 0.00 mm 0.00 W/m2
08:59 16.5 °C 12.1 °C 1007.3 hPa South 21 km/h 13 km/h 75% 0.00 mm 0.00 W/m2
09:04 16.4 °C 11.9 °C 1007.3 hPa South 20 km/h 15 km/h 75% 0.00 mm 0.00 W/m2
09:09 16.3 °C 11.9 °C 1007.3 hPa SSW 21 km/h 13 km/h 75% 0.00 mm 0.00 W/m2
09:14 16.4 °C 12.2 °C 1007.3 hPa South 20 km/h 11 km/h 76% 0.00 mm 0.00 W/m2
09:19 16.6 °C 12.3 °C 1007.4 hPa South 19 km/h 10 km/h 76% 0.00 mm 0.00 W/m2
09:24 16.8 °C 12.7 °C 1007.4 hPa South 15 km/h 7 km/h 77% 0.00 mm 0.00 W/m2
09:29 16.8 °C 12.8 °C 1007.5 hPa South 15 km/h 8 km/h 77% 0.00 mm 0.00 W/m2
09:34 16.9 °C 12.9 °C 1007.4 hPa South 15 km/h 7 km/h 77% 0.00 mm 0.00 W/m2
09:39 17.0 °C 12.9 °C 1007.4 hPa South 15 km/h 8 km/h 77% 0.00 mm 0.00 W/m2
09:44 17.2 °C 13.3 °C 1007.4 hPa South 15 km/h 7 km/h 78% 0.00 mm 0.00 W/m2
09:49 17.2 °C 13.3 °C 1007.4 hPa South 19 km/h 11 km/h 78% 0.00 mm 0.00 W/m2
09:54 17.1 °C 12.6 °C 1007.4 hPa South 17 km/h 11 km/h 75% 0.00 mm 0.00 W/m2
09:59 16.9 °C 12.4 °C 1007.4 hPa South 19 km/h 9 km/h 75% 0.00 mm 0.00 W/m2
10:04 16.8 °C 12.6 °C 1007.3 hPa South 11 km/h 8 km/h 76% 0.00 mm 0.00 W/m2
10:09 16.8 °C 12.8 °C 1007.3 hPa South 11 km/h 5 km/h 77% 0.00 mm 0.00 W/m2
10:14 16.8 °C 12.8 °C 1007.4 hPa South 19 km/h 10 km/h 77% 0.00 mm 0.00 W/m2
10:19 16.8 °C 12.5 °C 1007.4 hPa South 19 km/h 12 km/h 76% 0.00 mm 0.00 W/m2
10:24 16.9 °C 12.6 °C 1007.4 hPa South 17 km/h 8 km/h 76% 0.00 mm 0.00 W/m2
10:29 16.9 °C 12.5 °C 1007.5 hPa South 15 km/h 9 km/h 75% 0.00 mm 0.00 W/m2
10:34 17.2 °C 13.1 °C 1007.4 hPa South 11 km/h 8 km/h 77% 0.00 mm 0.00 W/m2
10:39 17.3 °C 13.1 °C 1007.4 hPa South 11 km/h 7 km/h 76% 0.00 mm 0.00 W/m2
10:44 17.4 °C 13.1 °C 1007.5 hPa South 15 km/h 9 km/h 76% 0.00 mm 0.00 W/m2
10:49 17.7 °C 13.4 °C 1007.5 hPa South 15 km/h 7 km/h 76% 0.00 mm 0.00 W/m2
10:54 17.7 °C 13.4 °C 1007.5 hPa South 15 km/h 8 km/h 76% 0.00 mm 0.00 W/m2
10:59 17.7 °C 13.0 °C 1007.5 hPa South 17 km/h 11 km/h 74% 0.00 mm 0.00 W/m2
11:04 17.9 °C 13.2 °C 1007.5 hPa South 15 km/h 8 km/h 74% 0.00 mm 0.00 W/m2
11:09 18.2 °C 13.4 °C 1007.5 hPa South 17 km/h 8 km/h 74% 0.00 mm 0.00 W/m2
11:14 18.6 °C 14.1 °C 1007.5 hPa South 11 km/h 5 km/h 75% 0.00 mm 0.00 W/m2
11:19 18.8 °C 14.1 °C 1007.5 hPa South 8 km/h 6 km/h 75% 0.00 mm 0.00 W/m2
11:24 19.1 °C 14.5 °C 1007.4 hPa South 13 km/h 8 km/h 75% 0.00 mm 0.00 W/m2
11:29 19.1 °C 14.6 °C 1007.4 hPa South 8 km/h 5 km/h 75% 0.00 mm 0.00 W/m2
11:34 19.1 °C 14.3 °C 1007.4 hPa South 8 km/h 7 km/h 74% 0.00 mm 0.00 W/m2
11:39 18.9 °C 14.5 °C 1007.5 hPa South 11 km/h 9 km/h 76% 0.00 mm 0.00 W/m2
11:44 18.8 °C 14.5 °C 1007.5 hPa South 15 km/h 10 km/h 76% 0.00 mm 0.00 W/m2
11:49 18.4 °C 13.2 °C 1007.4 hPa South 11 km/h 8 km/h 72% 0.00 mm 0.00 W/m2
11:54 18.4 °C 13.2 °C 1007.5 hPa South 16 km/h 9 km/h 72% 0.00 mm 0.00 W/m2
11:59 18.5 °C 13.1 °C 1007.5 hPa South 17 km/h 8 km/h 71% 0.00 mm 0.00 W/m2
12:04 19.1 °C 13.7 °C 1007.6 hPa SSW 11 km/h 8 km/h 72% 0.00 mm 0.00 W/m2
12:09 19.6 °C 14.2 °C 1007.6 hPa SSW 13 km/h 6 km/h 72% 0.00 mm 0.00 W/m2
12:14 19.6 °C 13.9 °C 1007.6 hPa SSW 15 km/h 9 km/h 70% 0.00 mm 0.00 W/m2
12:19 19.5 °C 14.1 °C 1007.5 hPa SSW 13 km/h 7 km/h 71% 0.00 mm 0.00 W/m2
12:24 19.4 °C 13.8 °C 1007.6 hPa South 17 km/h 11 km/h 70% 0.00 mm 0.00 W/m2
12:29 19.7 °C 14.9 °C 1007.6 hPa South 11 km/h 9 km/h 74% 0.00 mm 0.00 W/m2
12:34 19.7 °C 15.1 °C 1007.5 hPa South 11 km/h 10 km/h 75% 0.00 mm 0.00 W/m2
12:39 19.7 °C 15.1 °C 1007.5 hPa South 8 km/h 7 km/h 75% 0.00 mm 0.00 W/m2
12:44 19.6 °C 15.1 °C 1007.6 hPa South 11 km/h 8 km/h 75% 0.00 mm 0.00 W/m2
12:49 19.5 °C 14.5 °C 1007.6 hPa South 19 km/h 10 km/h 73% 0.00 mm 0.00 W/m2
12:54 19.6 °C 14.4 °C 1007.5 hPa South 21 km/h 13 km/h 72% 0.00 mm 0.00 W/m2
12:59 19.7 °C 14.1 °C 1007.4 hPa South 24 km/h 13 km/h 70% 0.00 mm 0.00 W/m2
13:04 19.8 °C 13.9 °C 1007.4 hPa South 23 km/h 12 km/h 69% 0.00 mm 0.00 W/m2
13:09 20.1 °C 14.2 °C 1007.4 hPa South 19 km/h 9 km/h 69% 0.00 mm 0.00 W/m2
13:14 20.2 °C 14.3 °C 1007.4 hPa South 13 km/h 9 km/h 69% 0.00 mm 0.00 W/m2
13:19 20.1 °C 13.8 °C 1007.3 hPa South 15 km/h 10 km/h 67% 0.00 mm 0.00 W/m2
13:24 20.1 °C 13.5 °C 1007.3 hPa South 21 km/h 13 km/h 66% 0.00 mm 0.00 W/m2
13:29 20.1 °C 13.3 °C 1007.3 hPa South 19 km/h 12 km/h 65% 0.00 mm 0.00 W/m2
13:34 20.2 °C 13.1 °C 1007.3 hPa South 24 km/h 15 km/h 64% 0.00 mm 0.00 W/m2
13:39 20.2 °C 13.2 °C 1007.3 hPa South 21 km/h 14 km/h 64% 0.00 mm 0.00 W/m2
13:44 20.2 °C 12.7 °C 1007.3 hPa South 21 km/h 15 km/h 63% 0.00 mm 0.00 W/m2
13:49 19.7 °C 12.6 °C 1007.3 hPa South 26 km/h 17 km/h 64% 0.00 mm 0.00 W/m2
13:54 19.5 °C 13.0 °C 1007.3 hPa SSW 23 km/h 14 km/h 66% 0.00 mm 0.00 W/m2
13:59 20.2 °C 14.1 °C 1007.2 hPa South 19 km/h 11 km/h 68% 0.00 mm 0.00 W/m2
14:04 20.5 °C 14.6 °C 1007.2 hPa South 17 km/h 12 km/h 69% 0.00 mm 0.00 W/m2
14:09 20.7 °C 15.0 °C 1007.2 hPa SSE 17 km/h 15 km/h 70% 0.00 mm 0.00 W/m2
14:14 20.7 °C 15.0 °C 1007.1 hPa SSE 24 km/h 20 km/h 70% 0.00 mm 0.00 W/m2
14:19 20.4 °C 14.3 °C 1007.1 hPa SSE 19 km/h 15 km/h 68% 0.00 mm 0.00 W/m2
14:24 19.9 °C 13.6 °C 1007.2 hPa SSE 16 km/h 10 km/h 68% 0.00 mm 0.00 W/m2
14:29 19.6 °C 13.7 °C 1007.2 hPa SSE 17 km/h 11 km/h 69% 0.00 mm 0.00 W/m2
14:34 19.9 °C 14.2 °C 1007.2 hPa SSE 15 km/h 10 km/h 70% 0.00 mm 0.00 W/m2
14:39 20.1 °C 14.1 °C 1007.1 hPa SSE 19 km/h 15 km/h 69% 0.00 mm 0.00 W/m2
14:44 20.2 °C 14.3 °C 1007.1 hPa SSE 19 km/h 11 km/h 69% 0.00 mm 0.00 W/m2
14:49 20.3 °C 14.3 °C 1007.1 hPa SSE 17 km/h 10 km/h 69% 0.00 mm 0.00 W/m2
14:54 20.3 °C 14.0 °C 1007.1 hPa SSE 13 km/h 11 km/h 67% 0.00 mm 0.00 W/m2
14:59 20.3 °C 13.9 °C 1007.1 hPa SSE 13 km/h 11 km/h 67% 0.00 mm 0.00 W/m2
15:04 20.3 °C 13.9 °C 1007.1 hPa SSE 11 km/h 10 km/h 67% 0.00 mm 0.00 W/m2
15:09 20.4 °C 13.8 °C 1007.1 hPa SSE 15 km/h 10 km/h 66% 0.00 mm 0.00 W/m2
15:14 20.6 °C 13.9 °C 1007.0 hPa South 17 km/h 10 km/h 66% 0.00 mm 0.00 W/m2
15:19 20.7 °C 14.2 °C 1007.0 hPa South 9 km/h 6 km/h 66% 0.00 mm 0.00 W/m2
15:24 20.7 °C 13.9 °C 1007.0 hPa South 7 km/h 5 km/h 65% 0.00 mm 0.00 W/m2
15:29 20.4 °C 13.7 °C 1007.0 hPa South 11 km/h 9 km/h 67% 0.00 mm 0.00 W/m2
15:34 19.9 °C 14.2 °C 1007.0 hPa South 17 km/h 10 km/h 70% 0.00 mm 0.00 W/m2
15:39 19.5 °C 13.7 °C 1007.1 hPa SSE 19 km/h 15 km/h 70% 0.00 mm 0.00 W/m2
15:44 19.2 °C 13.8 °C 1007.0 hPa SSE 21 km/h 19 km/h 71% 0.00 mm 0.00 W/m2
15:49 19.0 °C 13.8 °C 1007.1 hPa SSE 17 km/h 13 km/h 72% 0.00 mm 0.00 W/m2
15:54 18.8 °C 13.7 °C 1007.1 hPa SSE 13 km/h 10 km/h 72% 0.00 mm 0.00 W/m2
15:59 18.6 °C 13.5 °C 1007.0 hPa SSE 15 km/h 10 km/h 73% 0.00 mm 0.00 W/m2
16:04 18.4 °C 13.7 °C 1007.0 hPa SSE 11 km/h 9 km/h 74% 0.00 mm 0.00 W/m2
16:09 18.4 °C 13.7 °C 1007.1 hPa SSE 11 km/h 10 km/h 74% 0.00 mm 0.00 W/m2
16:14 18.3 °C 13.7 °C 1007.6 hPa South 29 km/h 9 km/h 75% 0.00 mm 0.00 W/m2
16:19 18.2 °C 13.7 °C 1007.7 hPa SW 32 km/h 20 km/h 75% 0.25 mm 0.00 W/m2
16:24 17.5 °C 13.2 °C 1008.0 hPa SW 26 km/h 15 km/h 77% 0.76 mm 0.00 W/m2
16:29 16.6 °C 12.7 °C 1008.0 hPa SSW 20 km/h 10 km/h 79% 1.27 mm 0.00 W/m2
16:34 15.8 °C 12.3 °C 1007.8 hPa SSW 6 km/h 3 km/h 80% 1.78 mm 0.00 W/m2
16:39 15.3 °C 11.9 °C 1007.4 hPa Calm     81% 1.78 mm 0.00 W/m2
16:44 15.1 °C 11.8 °C 1007.2 hPa Calm     81% 1.78 mm 0.00 W/m2
16:49 15.1 °C 11.8 °C 1007.0 hPa SSW 5 km/h   81% 1.78 mm 0.00 W/m2
16:54 15.0 °C 11.8 °C 1007.0 hPa SSW 6 km/h 6 km/h 81% 1.78 mm 0.00 W/m2
16:59 15.0 °C 11.8 °C 1006.9 hPa SSE 11 km/h 10 km/h 81% 1.78 mm 0.00 W/m2
17:04 15.2 °C 11.9 °C 1006.9 hPa ESE 11 km/h 10 km/h 81% 1.78 mm 0.00 W/m2
17:09 15.5 °C 12.3 °C 1006.9 hPa ESE 10 km/h 9 km/h 81% 1.78 mm 0.00 W/m2
17:14 15.7 °C 12.4 °C 1006.8 hPa ESE 10 km/h 9 km/h 81% 1.78 mm 0.00 W/m2
17:19 15.8 °C 12.6 °C 1006.8 hPa ESE 11 km/h 10 km/h 81% 1.78 mm 0.00 W/m2
17:24 15.8 °C 12.6 °C 1006.8 hPa East 18 km/h 12 km/h 81% 1.52 mm 0.00 W/m2
17:29 15.8 °C 12.4 °C 1006.8 hPa East 19 km/h 16 km/h 81% 1.02 mm 0.00 W/m2
17:34 15.7 °C 12.4 °C 1006.7 hPa East 17 km/h 15 km/h 81% 0.25 mm 0.00 W/m2
17:39 15.5 °C 12.3 °C 1006.6 hPa East 13 km/h 11 km/h 81% 0.00 mm 0.00 W/m2
17:44 15.6 °C 12.3 °C 1006.6 hPa East 9 km/h 8 km/h 81% 0.00 mm 0.00 W/m2
17:49 15.8 °C 12.5 °C 1006.6 hPa East 11 km/h 10 km/h 81% 0.00 mm 0.00 W/m2
17:54 15.8 °C 12.4 °C 1006.5 hPa East 17 km/h 14 km/h 80% 0.00 mm 0.00 W/m2
17:59 15.8 °C 12.3 °C 1006.5 hPa East 17 km/h 13 km/h 80% 0.00 mm 0.00 W/m2
18:04 15.8 °C 12.4 °C 1006.5 hPa East 15 km/h 12 km/h 80% 0.00 mm 0.00 W/m2
18:09 15.8 °C 12.6 °C 1006.6 hPa East 15 km/h 12 km/h 81% 0.00 mm 0.00 W/m2
18:14 15.8 °C 12.4 °C 1006.6 hPa East 16 km/h 13 km/h 80% 0.00 mm 0.00 W/m2
18:19 15.9 °C 12.6 °C 1006.5 hPa East 18 km/h 14 km/h 81% 0.00 mm 0.00 W/m2
18:24 16.0 °C 12.7 °C 1006.5 hPa East 21 km/h 18 km/h 81% 0.00 mm 0.00 W/m2
18:29 16.1 °C 12.7 °C 1006.5 hPa ESE 19 km/h 18 km/h 81% 0.00 mm 0.00 W/m2
18:34 16.1 °C 12.8 °C 1006.8 hPa ESE 19 km/h 16 km/h 81% 0.00 mm 0.00 W/m2
18:39 16.1 °C 12.8 °C 1007.1 hPa ESE 15 km/h 12 km/h 81% 0.00 mm 0.00 W/m2
18:44 16.1 °C 12.6 °C 1007.1 hPa SE 15 km/h 11 km/h 80% 0.00 mm 0.00 W/m2
18:49 15.9 °C 12.6 °C 1007.1 hPa SE 17 km/h 12 km/h 81% 0.25 mm 0.00 W/m2
18:54 15.7 °C 12.4 °C 1006.8 hPa SE 17 km/h 12 km/h 81% 0.51 mm 0.00 W/m2
18:59 15.6 °C 12.3 °C 1006.7 hPa SSW 32 km/h 13 km/h 81% 0.51 mm 0.00 W/m2
19:04 15.4 °C 12.2 °C 1006.7 hPa South 8 km/h 4 km/h 81% 0.51 mm 0.00 W/m2
19:09 15.3 °C 12.1 °C 1006.7 hPa South 8 km/h 6 km/h 81% 0.51 mm 0.00 W/m2
19:14 15.2 °C 11.9 °C 1006.7 hPa South 13 km/h 10 km/h 81% 0.51 mm 0.00 W/m2
19:19 15.2 °C 11.9 °C 1006.6 hPa South 11 km/h 11 km/h 81% 0.51 mm 0.00 W/m2
19:24 15.2 °C 11.9 °C 1006.6 hPa SSE 15 km/h 12 km/h 81% 0.51 mm 0.00 W/m2
19:29 15.1 °C 11.9 °C 1006.6 hPa SSE 19 km/h 15 km/h 81% 0.51 mm 0.00 W/m2
19:34 15.1 °C 11.8 °C 1006.7 hPa SSE 15 km/h 10 km/h 81% 0.51 mm 0.00 W/m2
19:39 15.1 °C 11.8 °C 1006.7 hPa SSE 16 km/h 11 km/h 81% 0.51 mm 0.00 W/m2
19:44 15.1 °C 11.8 °C 1006.7 hPa SSE 19 km/h 15 km/h 81% 0.51 mm 0.00 W/m2
19:49 15.1 °C 11.8 °C 1006.8 hPa SSE 19 km/h 13 km/h 81% 0.51 mm 0.00 W/m2
19:54 15.0 °C 11.8 °C 1006.9 hPa SSE 9 km/h 7 km/h 81% 0.25 mm 0.00 W/m2
19:59 15.0 °C 11.8 °C 1006.8 hPa SSE 10 km/h 7 km/h 81% 0.00 mm 0.00 W/m2
20:04 14.9 °C 11.7 °C 1006.8 hPa SSE 11 km/h 9 km/h 81% 0.00 mm 0.00 W/m2
20:09 14.9 °C 11.7 °C 1006.8 hPa SSE 13 km/h 10 km/h 81% 0.00 mm 0.00 W/m2
20:14 14.9 °C 11.7 °C 1006.8 hPa SSE 17 km/h 13 km/h 81% 0.00 mm 0.00 W/m2
20:19 14.8 °C 11.6 °C 1006.8 hPa SSE 17 km/h 14 km/h 81% 0.00 mm 0.00 W/m2
20:24 14.8 °C 11.6 °C 1006.8 hPa SSE 17 km/h 13 km/h 81% 0.00 mm 0.00 W/m2
20:29 14.8 °C 11.6 °C 1006.8 hPa SSE 17 km/h 12 km/h 81% 0.00 mm 0.00 W/m2
20:34 14.8 °C 11.6 °C 1006.8 hPa SSE 15 km/h 11 km/h 81% 0.00 mm 0.00 W/m2
20:39 14.8 °C 11.6 °C 1006.9 hPa SSE 10 km/h 7 km/h 81% 0.00 mm 0.00 W/m2
20:44 14.8 °C 11.6 °C 1007.0 hPa SSE 10 km/h 7 km/h 81% 0.00 mm 0.00 W/m2
20:49 14.8 °C 11.6 °C 1007.2 hPa SSE 5 km/h 1 km/h 81% 0.00 mm 0.00 W/m2
20:54 14.8 °C 11.6 °C 1007.4 hPa SSE 10 km/h 6 km/h 81% 0.00 mm 0.00 W/m2
20:59 14.7 °C 11.4 °C 1007.8 hPa South 16 km/h 10 km/h 81% 0.00 mm 0.00 W/m2
21:04 14.6 °C 11.4 °C 1007.9 hPa SW 23 km/h 13 km/h 81% 0.00 mm 0.00 W/m2
21:09 14.5 °C 11.3 °C 1007.9 hPa SW 19 km/h 12 km/h 81% 0.00 mm 0.00 W/m2
21:14 14.5 °C 11.3 °C 1008.0 hPa SW 11 km/h 8 km/h 81% 0.00 mm 0.00 W/m2
21:19 14.4 °C 11.2 °C 1008.0 hPa SW 11 km/h 7 km/h 81% 0.25 mm 0.00 W/m2
21:24 14.3 °C 11.1 °C 1008.1 hPa SSW 21 km/h 11 km/h 81% 0.51 mm 0.00 W/m2
21:29 14.2 °C 10.9 °C 1008.1 hPa SSW 17 km/h 9 km/h 81% 0.51 mm 0.00 W/m2
21:34 13.9 °C 10.7 °C 1008.1 hPa SSW 8 km/h 5 km/h 81% 0.51 mm 0.00 W/m2
21:39 13.8 °C 10.6 °C 1008.1 hPa SSW 10 km/h 6 km/h 81% 0.51 mm 0.00 W/m2
21:44 13.7 °C 10.5 °C 1008.1 hPa SSW 6 km/h 5 km/h 81% 0.76 mm 0.00 W/m2
21:49 13.7 °C 10.7 °C 1008.0 hPa South 11 km/h 8 km/h 82% 1.02 mm 0.00 W/m2
21:54 13.8 °C 10.8 °C 1007.9 hPa South 15 km/h 11 km/h 82% 1.27 mm 0.00 W/m2
21:59 13.9 °C 10.9 °C 1007.9 hPa SSE 19 km/h 15 km/h 82% 1.27 mm 0.00 W/m2
22:04 13.9 °C 10.9 °C 1007.9 hPa SSE 19 km/h 16 km/h 82% 1.27 mm 0.00 W/m2
22:09 13.8 °C 10.8 °C 1007.9 hPa SSE 17 km/h 13 km/h 82% 1.27 mm 0.00 W/m2
22:14 13.8 °C 10.8 °C 1007.9 hPa SSE 17 km/h 13 km/h 82% 1.27 mm 0.00 W/m2
22:19 13.8 °C 10.8 °C 1007.9 hPa SSE 11 km/h 9 km/h 82% 1.27 mm 0.00 W/m2
22:24 13.7 °C 10.7 °C 1007.9 hPa SSE 8 km/h 6 km/h 82% 1.02 mm 0.00 W/m2
22:29 13.6 °C 10.6 °C 1007.9 hPa Calm     82% 0.76 mm 0.00 W/m2
22:34 13.4 °C 10.4 °C 1007.9 hPa Calm     82% 0.76 mm 0.00 W/m2
22:39 13.4 °C 10.4 °C 1007.9 hPa Calm     82% 0.76 mm 0.00 W/m2
22:44 13.3 °C 10.3 °C 1008.0 hPa Calm     82% 0.51 mm 0.00 W/m2
22:49 13.3 °C 10.4 °C 1008.0 hPa Calm     83% 0.51 mm 0.00 W/m2
22:54 13.3 °C 10.5 °C 1008.0 hPa Calm     83% 0.25 mm 0.00 W/m2
22:59 13.3 °C 10.5 °C 1008.0 hPa Calm     83% 0.00 mm 0.00 W/m2
23:04 13.3 °C 10.5 °C 1008.0 hPa Calm     83% 0.00 mm 0.00 W/m2
23:09 13.3 °C 10.5 °C 1008.1 hPa Calm     83% 0.00 mm 0.00 W/m2
Vejrstation Sortsø Strand
Compliments of Weather Underground - 2.25 mb

© 2006-2024 strandvejr.dk